YCES weather

Ceres Airport
Victoria, Australia

Public forecast

Using degrees Celsius for public forecast. Weather courtesy of forecast.io.

METAR (pilot weather report)

Closest report is Avalon Airport, 11.9 nm (22.1 km) ENE. Retrieved 2018/08/18 13:00 UTC (1 minute ago):

YMAV 181300Z AUTO 29017KT 9999 // SCT079 SCT120 07/04 Q1012

TAF (pilot weather forecast)

Closest forecast is Avalon Airport, 11.9 nm (22.1 km) ENE. Retrieved 2018/08/18 12:00 UTC (1 hour ago):

TAF YMAV 181117Z 1812/1912 28022G34KT 9999 -SHRA SCT035 FM181600 24018G28KT 9999 -SHRA FEW025 BKN035 FM190000 22022G38KT 9999 -SHRA FEW025 SCT040 FM190800 22014KT 9999 -SHRA SCT025 BKN035 INTER 1812/1814 3000 SHRAGS SCT020 BKN030 INTER 1820/1910 22025G42KT 3000 SHRAGS BKN012